Time;durP1;ratioP1;P1;durP2;ratioP2;P2;SDS_P1;SDS_P2;PMS_P1;PMS_P2;Temp;Humidity;BMP_temperature;BMP_pressure;BME280_temperature;BME280_humidity;BME280_pressure;Samples;Min_cycle;Max_cycle;Signal;HPM_P1;HPM_P2
2022/04/09 00:02:10;;;;;;;;;;;5.80;76.20;;;;;;5119739;27;19919;-84
2022/04/09 00:04:36;;;;;;;;;;;5.80;76.10;;;;;;5112797;27;20053;-84
2022/04/09 00:07:01;;;;;;;;;;;5.80;76.40;;;;;;5123413;22;19911;-82
2022/04/09 00:09:27;;;;;;;;;;;5.70;76.60;;;;;;5035925;28;19925;-82
2022/04/09 00:11:52;;;;;;;;;;;5.70;76.90;;;;;;5039176;28;19940;-83
2022/04/09 00:14:18;;;;;;;;;;;5.60;76.20;;;;;;5041845;28;19913;-83
2022/04/09 00:16:43;;;;;;;;;;;5.70;76.90;;;;;;5050000;28;19913;-83
2022/04/09 00:19:09;;;;;;;;;;;5.60;76.40;;;;;;5054621;28;20001;-83
2022/04/09 00:21:35;;;;;;;;;;;5.60;77.00;;;;;;5075839;28;19949;-83
2022/04/09 00:24:00;;;;;;;;;;;5.60;76.90;;;;;;5077591;28;19920;-84
2022/04/09 00:26:26;;;;;;;;;;;5.60;77.50;;;;;;5078387;28;19913;-83
2022/04/09 00:28:51;;;;;;;;;;;5.60;77.60;;;;;;5056717;28;19916;-82
2022/04/09 00:31:17;;;;;;;;;;;5.70;77.30;;;;;;5055919;28;20477;-83
2022/04/09 00:33:42;;;;;;;;;;;5.70;76.60;;;;;;5076426;28;19935;-83
2022/04/09 00:36:08;;;;;;;;;;;5.70;77.50;;;;;;5075229;28;19935;-83
2022/04/09 00:38:33;;;;;;;;;;;5.80;77.20;;;;;;5074563;28;19912;-83
2022/04/09 00:40:58;;;;;;;;;;;5.90;77.40;;;;;;5076018;28;19908;-82
2022/04/09 00:43:24;;;;;;;;;;;5.90;77.40;;;;;;5074249;28;19967;-83
2022/04/09 00:45:50;;;;;;;;;;;5.80;77.20;;;;;;5082502;28;20016;-83
2022/04/09 00:48:16;;;;;;;;;;;5.90;77.60;;;;;;5070604;28;19924;-83
2022/04/09 00:50:42;;;;;;;;;;;5.90;77.60;;;;;;5072932;28;19916;-84
2022/04/09 00:53:08;;;;;;;;;;;6.00;77.70;;;;;;5079001;28;19973;-83
2022/04/09 00:58:19;;;;;;;;;;;5.90;76.80;;;;;;5069465;28;19966;-83
2022/04/09 01:00:44;;;;;;;;;;;5.90;77.10;;;;;;5061410;28;19943;-83
2022/04/09 01:03:11;;;;;;;;;;;5.90;78.00;;;;;;5076262;28;19913;-82
2022/04/09 01:05:37;;;;;;;;;;;5.90;78.20;;;;;;5073169;28;19912;-82
2022/04/09 01:08:03;;;;;;;;;;;5.90;78.10;;;;;;5057223;28;20003;-83
2022/04/09 01:10:28;;;;;;;;;;;5.80;78.00;;;;;;5053817;28;19984;-82
2022/04/09 01:12:54;;;;;;;;;;;5.90;78.00;;;;;;5078109;28;20297;-82
2022/04/09 01:15:19;;;;;;;;;;;6.00;78.20;;;;;;5076969;28;19916;-83
2022/04/09 01:17:45;;;;;;;;;;;6.00;77.80;;;;;;5076323;28;19923;-83
2022/04/09 01:20:17;;;;;;;;;;;5.90;78.00;;;;;;5072276;28;19912;-84
2022/04/09 01:22:43;;;;;;;;;;;5.90;78.10;;;;;;5065420;28;19931;-83
2022/04/09 01:25:08;;;;;;;;;;;5.80;77.80;;;;;;5059482;28;19916;-84
2022/04/09 01:27:34;;;;;;;;;;;5.70;78.10;;;;;;5072642;28;19960;-82
2022/04/09 01:29:59;;;;;;;;;;;5.70;78.10;;;;;;5073820;28;19924;-82
2022/04/09 01:32:25;;;;;;;;;;;5.60;78.40;;;;;;5073517;28;19927;-83
2022/04/09 01:34:52;;;;;;;;;;;5.70;78.50;;;;;;5068902;28;19912;-82
2022/04/09 01:37:18;;;;;;;;;;;5.60;78.80;;;;;;5056652;28;19986;-82
2022/04/09 01:39:43;;;;;;;;;;;5.60;78.00;;;;;;5062821;28;20371;-82
2022/04/09 01:42:10;;;;;;;;;;;5.50;79.10;;;;;;5053942;28;19924;-82
2022/04/09 01:44:36;;;;;;;;;;;5.60;78.90;;;;;;5069079;28;20398;-82
2022/04/09 01:47:02;;;;;;;;;;;5.60;78.70;;;;;;5062641;28;19916;-81
2022/04/09 01:49:27;;;;;;;;;;;5.60;78.20;;;;;;5060587;28;19952;-83
2022/04/09 01:51:53;;;;;;;;;;;5.60;78.50;;;;;;5052453;28;19909;-83
2022/04/09 01:54:18;;;;;;;;;;;5.60;78.30;;;;;;5075862;28;19981;-83
2022/04/09 01:56:43;;;;;;;;;;;5.70;78.70;;;;;;5062467;28;19942;-82
2022/04/09 01:59:09;;;;;;;;;;;5.70;78.70;;;;;;5067118;28;19943;-82
2022/04/09 02:01:34;;;;;;;;;;;5.60;78.40;;;;;;5051176;28;19916;-82
2022/04/09 02:04:00;;;;;;;;;;;5.70;78.60;;;;;;5079643;28;19919;-82
2022/04/09 02:06:25;;;;;;;;;;;5.70;78.00;;;;;;5089072;28;19912;-82
2022/04/09 02:08:51;;;;;;;;;;;5.70;78.60;;;;;;5086104;28;20379;-83
2022/04/09 02:11:16;;;;;;;;;;;5.70;77.80;;;;;;5075362;28;20190;-83
2022/04/09 02:13:42;;;;;;;;;;;5.60;78.00;;;;;;5076246;28;19919;-83
2022/04/09 02:16:07;;;;;;;;;;;5.70;78.00;;;;;;5053861;28;19967;-82
2022/04/09 02:18:33;;;;;;;;;;;5.60;78.40;;;;;;5055409;28;19978;-82
2022/04/09 02:20:58;;;;;;;;;;;5.70;78.00;;;;;;5072914;28;19919;-83
2022/04/09 02:23:24;;;;;;;;;;;5.70;77.70;;;;;;5068188;28;20003;-82
2022/04/09 02:25:49;;;;;;;;;;;5.80;78.10;;;;;;5062481;28;19917;-82
2022/04/09 02:28:14;;;;;;;;;;;5.60;78.00;;;;;;5070227;28;19922;-83
2022/04/09 02:30:40;;;;;;;;;;;5.70;78.00;;;;;;5066718;28;19939;-82
2022/04/09 02:33:05;;;;;;;;;;;5.70;78.40;;;;;;5048985;28;19913;-83
2022/04/09 02:35:31;;;;;;;;;;;5.60;78.50;;;;;;5066352;28;19913;-83
2022/04/09 02:37:57;;;;;;;;;;;5.70;78.20;;;;;;5069899;28;20290;-82
2022/04/09 02:40:22;;;;;;;;;;;5.60;78.00;;;;;;5072697;28;19978;-83
2022/04/09 02:42:48;;;;;;;;;;;5.70;77.90;;;;;;5050995;28;19952;-83
2022/04/09 02:45:13;;;;;;;;;;;5.80;77.60;;;;;;5048849;28;19920;-83
2022/04/09 02:47:40;;;;;;;;;;;5.80;77.70;;;;;;5074506;28;20362;-82
2022/04/09 02:50:06;;;;;;;;;;;5.80;77.30;;;;;;5056256;28;19920;-82
2022/04/09 02:52:33;;;;;;;;;;;5.80;77.20;;;;;;5074501;28;19901;-82
2022/04/09 02:54:58;;;;;;;;;;;5.90;77.40;;;;;;5086746;28;19923;-82
2022/04/09 02:57:23;;;;;;;;;;;5.80;77.60;;;;;;5075884;28;19916;-83
2022/04/09 02:59:49;;;;;;;;;;;5.80;77.80;;;;;;5070705;28;20034;-82
2022/04/09 03:02:14;;;;;;;;;;;5.70;77.70;;;;;;5067834;28;19921;-82
2022/04/09 03:04:40;;;;;;;;;;;5.70;77.00;;;;;;5076617;28;19913;-83
2022/04/09 03:07:05;;;;;;;;;;;5.70;77.60;;;;;;5071621;28;19999;-82
2022/04/09 03:09:31;;;;;;;;;;;5.60;77.40;;;;;;5060854;28;20336;-82
2022/04/09 03:11:56;;;;;;;;;;;5.70;77.40;;;;;;5073798;28;20359;-83
2022/04/09 03:14:22;;;;;;;;;;;5.70;77.00;;;;;;5059941;28;19995;-82
2022/04/09 03:16:47;;;;;;;;;;;5.80;77.00;;;;;;5074599;28;19958;-81
2022/04/09 03:19:13;;;;;;;;;;;5.80;77.10;;;;;;5092362;28;20031;-81
2022/04/09 03:21:38;;;;;;;;;;;5.60;76.80;;;;;;5091986;28;19912;-81
2022/04/09 03:24:04;;;;;;;;;;;5.70;77.20;;;;;;5077428;28;20294;-82
2022/04/09 03:26:29;;;;;;;;;;;5.70;77.50;;;;;;5083863;28;19916;-82
2022/04/09 03:28:54;;;;;;;;;;;5.70;77.60;;;;;;5081353;28;19920;-81
2022/04/09 03:31:20;;;;;;;;;;;5.70;77.00;;;;;;5083599;28;20412;-82
2022/04/09 03:33:47;;;;;;;;;;;5.80;77.10;;;;;;5070030;28;19908;-81
2022/04/09 03:36:13;;;;;;;;;;;5.80;77.50;;;;;;5066954;28;19971;-81
2022/04/09 03:38:40;;;;;;;;;;;5.80;77.60;;;;;;5067930;28;19912;-81
2022/04/09 03:41:06;;;;;;;;;;;5.70;78.00;;;;;;5064851;28;20120;-83
2022/04/09 03:43:31;;;;;;;;;;;5.80;77.40;;;;;;5081713;28;19935;-82
2022/04/09 03:45:57;;;;;;;;;;;5.80;77.70;;;;;;5083402;28;19975;-82
2022/04/09 03:48:22;;;;;;;;;;;5.80;77.10;;;;;;5080329;28;19981;-82
2022/04/09 03:50:47;;;;;;;;;;;5.80;76.60;;;;;;5063025;28;19952;-82
2022/04/09 03:53:19;;;;;;;;;;;5.80;77.40;;;;;;5070303;28;19924;-81
2022/04/09 03:55:45;;;;;;;;;;;5.80;77.40;;;;;;5081886;28;19924;-81
2022/04/09 03:58:11;;;;;;;;;;;5.80;77.00;;;;;;5089076;28;19912;-81
2022/04/09 04:00:37;;;;;;;;;;;5.80;76.90;;;;;;5082154;28;19912;-81
2022/04/09 04:03:02;;;;;;;;;;;5.70;76.20;;;;;;5076738;28;20139;-81
2022/04/09 04:05:28;;;;;;;;;;;5.80;76.80;;;;;;5082984;28;19938;-81
2022/04/09 04:07:53;;;;;;;;;;;5.80;76.70;;;;;;5078947;28;19920;-81
2022/04/09 04:10:19;;;;;;;;;;;5.80;77.00;;;;;;5062314;28;19923;-82
2022/04/09 04:12:44;;;;;;;;;;;5.80;76.80;;;;;;5068690;28;19913;-82
2022/04/09 04:15:10;;;;;;;;;;;5.80;76.30;;;;;;5044473;28;20663;-81
2022/04/09 04:17:42;;;;;;;;;;;5.70;76.90;;;;;;5067192;28;19952;-81
2022/04/09 04:20:08;;;;;;;;;;;5.70;76.90;;;;;;5050744;28;19920;-82
2022/04/09 04:22:33;;;;;;;;;;;5.60;77.50;;;;;;5074609;28;19958;-81
2022/04/09 04:24:59;;;;;;;;;;;5.60;77.60;;;;;;5073936;28;19922;-81
2022/04/09 04:27:24;;;;;;;;;;;5.60;77.70;;;;;;5054759;28;19912;-82
2022/04/09 04:29:50;;;;;;;;;;;5.60;78.00;;;;;;5070888;28;19948;-82
2022/04/09 04:32:15;;;;;;;;;;;5.60;78.20;;;;;;5090600;28;19917;-81
2022/04/09 04:34:40;;;;;;;;;;;5.60;78.20;;;;;;5056095;28;19913;-82
2022/04/09 04:37:06;;;;;;;;;;;5.50;78.50;;;;;;5081884;28;19916;-82
2022/04/09 04:39:31;;;;;;;;;;;5.40;78.20;;;;;;5078802;28;19939;-81
2022/04/09 04:41:57;;;;;;;;;;;5.40;78.20;;;;;;5055847;28;20393;-81
2022/04/09 04:44:22;;;;;;;;;;;5.30;78.20;;;;;;5056378;28;19993;-81
2022/04/09 04:46:48;;;;;;;;;;;5.30;78.00;;;;;;5076468;28;19954;-81
2022/04/09 04:49:13;;;;;;;;;;;5.30;78.70;;;;;;5070626;28;19913;-81
2022/04/09 04:51:39;;;;;;;;;;;5.30;78.70;;;;;;5074054;28;20011;-81
2022/04/09 04:54:05;;;;;;;;;;;5.30;78.60;;;;;;5057687;28;20007;-80
2022/04/09 04:56:30;;;;;;;;;;;5.10;78.60;;;;;;5071016;28;19938;-81
2022/04/09 04:58:56;;;;;;;;;;;5.10;79.10;;;;;;5075365;28;19912;-82
2022/04/09 05:01:21;;;;;;;;;;;5.00;79.20;;;;;;5055878;28;19992;-81
2022/04/09 05:03:47;;;;;;;;;;;5.10;79.70;;;;;;5063185;28;19917;-82
2022/04/09 05:06:12;;;;;;;;;;;5.10;79.30;;;;;;5070907;28;20464;-81
2022/04/09 05:08:40;;;;;;;;;;;5.10;80.00;;;;;;5078084;28;19934;-80
2022/04/09 05:11:05;;;;;;;;;;;5.20;78.80;;;;;;5078953;28;19933;-81
2022/04/09 05:13:31;;;;;;;;;;;5.30;78.90;;;;;;5073827;28;19913;-81
2022/04/09 05:15:56;;;;;;;;;;;5.30;78.80;;;;;;5069855;28;20000;-80
2022/04/09 05:18:22;;;;;;;;;;;5.30;79.30;;;;;;5087229;28;19913;-81
2022/04/09 05:20:48;;;;;;;;;;;5.40;78.70;;;;;;5067613;28;19908;-82
2022/04/09 05:23:14;;;;;;;;;;;5.30;78.70;;;;;;5061958;28;20076;-82
2022/04/09 05:25:41;;;;;;;;;;;5.30;79.20;;;;;;5080480;28;19916;-81
2022/04/09 05:28:08;;;;;;;;;;;5.40;79.30;;;;;;5065061;28;19912;-80
2022/04/09 05:30:33;;;;;;;;;;;5.40;79.40;;;;;;5063501;28;20011;-81
2022/04/09 05:32:59;;;;;;;;;;;5.40;79.00;;;;;;5065893;28;19944;-81
2022/04/09 05:35:24;;;;;;;;;;;5.40;79.10;;;;;;5067278;28;19913;-81
2022/04/09 05:37:51;;;;;;;;;;;5.40;78.90;;;;;;5080338;28;20059;-80
2022/04/09 05:40:17;;;;;;;;;;;5.50;79.10;;;;;;5082803;28;20017;-81
2022/04/09 05:42:42;;;;;;;;;;;5.60;78.70;;;;;;5077220;28;19912;-82
2022/04/09 05:45:09;;;;;;;;;;;5.70;78.20;;;;;;5082444;28;19921;-82
2022/04/09 05:47:38;;;;;;;;;;;5.90;78.10;;;;;;5059237;28;19920;-81
2022/04/09 05:50:05;;;;;;;;;;;5.80;78.30;;;;;;5067451;28;19939;-82
2022/04/09 05:52:31;;;;;;;;;;;5.80;77.10;;;;;;5055670;28;20066;-82
2022/04/09 05:54:56;;;;;;;;;;;5.70;77.30;;;;;;5048554;28;19976;-81
2022/04/09 05:57:22;;;;;;;;;;;5.70;77.50;;;;;;5054800;28;19913;-82
2022/04/09 05:59:47;;;;;;;;;;;5.70;77.70;;;;;;5076446;28;20237;-81
2022/04/09 06:02:13;;;;;;;;;;;5.80;78.10;;;;;;5072037;28;20021;-82
2022/04/09 06:04:39;;;;;;;;;;;5.70;77.10;;;;;;5069471;28;19923;-82
2022/04/09 06:07:04;;;;;;;;;;;5.80;77.30;;;;;;5068637;28;20007;-81
2022/04/09 06:09:30;;;;;;;;;;;5.80;76.90;;;;;;5106203;22;19924;-81
2022/04/09 06:11:55;;;;;;;;;;;6.00;77.40;;;;;;5091862;28;19945;-82
2022/04/09 06:14:20;;;;;;;;;;;6.00;76.60;;;;;;5095047;28;19912;-81
2022/04/09 06:16:46;;;;;;;;;;;6.10;76.40;;;;;;5095882;28;19912;-81
2022/04/09 06:19:11;;;;;;;;;;;6.10;76.40;;;;;;5093941;28;19916;-84
2022/04/09 06:21:38;;;;;;;;;;;6.10;75.50;;;;;;5089740;28;19962;-85
2022/04/09 06:24:03;;;;;;;;;;;6.10;76.00;;;;;;5086673;28;20039;-86
2022/04/09 06:26:29;;;;;;;;;;;6.10;76.80;;;;;;5096366;28;20041;-86
2022/04/09 06:28:55;;;;;;;;;;;6.20;78.30;;;;;;5097388;28;19973;-87
2022/04/09 06:31:20;;;;;;;;;;;6.30;77.70;;;;;;5098737;28;19916;-89
2022/04/09 06:33:45;;;;;;;;;;;6.30;78.30;;;;;;5080964;28;19919;-84
2022/04/09 06:36:11;;;;;;;;;;;6.40;77.10;;;;;;5099186;28;19912;-82
2022/04/09 06:38:36;;;;;;;;;;;6.30;77.30;;;;;;5094028;28;19913;-82
2022/04/09 06:41:02;;;;;;;;;;;6.20;78.10;;;;;;5097534;28;19920;-83
2022/04/09 06:43:27;;;;;;;;;;;6.10;78.30;;;;;;5098071;28;19975;-81
2022/04/09 06:45:53;;;;;;;;;;;6.10;79.00;;;;;;5099429;28;19923;-81
2022/04/09 06:48:18;;;;;;;;;;;6.10;79.50;;;;;;5099936;28;19923;-81
2022/04/09 06:50:44;;;;;;;;;;;6.30;78.60;;;;;;5100797;28;20363;-81
2022/04/09 06:53:09;;;;;;;;;;;6.20;78.60;;;;;;5100395;28;20282;-80
2022/04/09 06:55:35;;;;;;;;;;;6.30;77.70;;;;;;5105286;28;19908;-81
2022/04/09 06:58:01;;;;;;;;;;;6.30;76.50;;;;;;5100992;28;19920;-82
2022/04/09 07:00:27;;;;;;;;;;;6.30;77.40;;;;;;5102708;28;19916;-81
2022/04/09 07:02:52;;;;;;;;;;;6.40;77.30;;;;;;5098447;28;20113;-81
2022/04/09 07:05:18;;;;;;;;;;;6.30;77.00;;;;;;5100562;28;19912;-82
2022/04/09 07:07:46;;;;;;;;;;;6.30;77.00;;;;;;5098820;28;19919;-81
2022/04/09 07:10:12;;;;;;;;;;;6.50;76.40;;;;;;5099564;28;20183;-82
2022/04/09 07:12:38;;;;;;;;;;;6.50;75.40;;;;;;5094195;28;19912;-81
2022/04/09 07:15:04;;;;;;;;;;;6.60;75.30;;;;;;5101733;28;19923;-80
2022/04/09 07:17:30;;;;;;;;;;;6.70;75.00;;;;;;5099675;28;20345;-79
2022/04/09 07:19:59;;;;;;;;;;;6.70;75.50;;;;;;5100287;28;19916;-80
2022/04/09 07:22:25;;;;;;;;;;;6.80;75.10;;;;;;5097734;28;20324;-80
2022/04/09 07:24:50;;;;;;;;;;;7.10;75.10;;;;;;5097510;28;19912;-83
2022/04/09 07:27:16;;;;;;;;;;;7.20;73.70;;;;;;5090108;28;19912;-81
2022/04/09 07:29:41;;;;;;;;;;;7.30;72.90;;;;;;5098392;28;19947;-79
2022/04/09 07:32:07;;;;;;;;;;;7.30;72.90;;;;;;5096258;28;19916;-80
2022/04/09 07:34:33;;;;;;;;;;;7.30;72.60;;;;;;5097685;28;20437;-80
2022/04/09 07:36:58;;;;;;;;;;;7.30;72.80;;;;;;5094073;28;19919;-80
2022/04/09 07:39:23;;;;;;;;;;;7.50;73.00;;;;;;5104527;28;19939;-81
2022/04/09 07:41:49;;;;;;;;;;;7.60;72.60;;;;;;5103504;28;20009;-81
2022/04/09 07:44:14;;;;;;;;;;;7.60;71.10;;;;;;5096942;28;19912;-81
2022/04/09 07:46:40;;;;;;;;;;;7.70;70.00;;;;;;5101799;28;19916;-80
2022/04/09 07:49:05;;;;;;;;;;;7.70;70.20;;;;;;5097977;28;19927;-82
2022/04/09 07:51:31;;;;;;;;;;;7.80;69.20;;;;;;5104478;28;19927;-82
2022/04/09 07:53:56;;;;;;;;;;;7.80;69.70;;;;;;5103974;28;19916;-81
2022/04/09 07:56:22;;;;;;;;;;;7.70;68.70;;;;;;5102455;28;19916;-83
2022/04/09 07:58:47;;;;;;;;;;;7.80;68.90;;;;;;5098238;28;20344;-82
2022/04/09 08:01:13;;;;;;;;;;;7.90;68.30;;;;;;5100310;28;19916;-81
2022/04/09 08:03:38;;;;;;;;;;;7.90;67.80;;;;;;5087515;28;20382;-82
2022/04/09 08:06:05;;;;;;;;;;;7.90;66.80;;;;;;5097816;28;20267;-81
2022/04/09 08:08:31;;;;;;;;;;;7.90;67.50;;;;;;5098329;28;19983;-83
2022/04/09 08:10:56;;;;;;;;;;;7.90;67.60;;;;;;5097709;28;19916;-81
2022/04/09 08:13:22;;;;;;;;;;;7.70;68.00;;;;;;5104740;28;19912;-81
2022/04/09 08:15:47;;;;;;;;;;;7.80;68.00;;;;;;5102311;28;19979;-81
2022/04/09 08:18:13;;;;;;;;;;;7.80;67.50;;;;;;5104072;28;19920;-81
2022/04/09 08:20:38;;;;;;;;;;;7.80;68.40;;;;;;5112137;28;19912;-81
2022/04/09 08:23:04;;;;;;;;;;;7.60;69.50;;;;;;5088473;28;19984;-82
2022/04/09 08:25:30;;;;;;;;;;;7.60;71.00;;;;;;5102669;28;19912;-81
2022/04/09 08:27:56;;;;;;;;;;;7.50;68.50;;;;;;5100190;28;19955;-81
2022/04/09 08:30:22;;;;;;;;;;;7.50;70.10;;;;;;5095189;28;19976;-82
2022/04/09 08:32:52;;;;;;;;;;;7.70;68.70;;;;;;5098921;28;19916;-80
2022/04/09 08:35:17;;;;;;;;;;;8.00;68.80;;;;;;5105836;28;19924;-81
2022/04/09 08:37:43;;;;;;;;;;;8.10;68.60;;;;;;5102540;28;19912;-80
2022/04/09 08:40:10;;;;;;;;;;;8.20;68.40;;;;;;5101428;28;19934;-80
2022/04/09 08:42:36;;;;;;;;;;;8.40;70.00;;;;;;5095890;28;19912;-79
2022/04/09 08:45:01;;;;;;;;;;;8.40;69.60;;;;;;5100402;28;19981;-80
2022/04/09 08:47:28;;;;;;;;;;;8.30;70.50;;;;;;5097721;28;19912;-79
2022/04/09 08:49:54;;;;;;;;;;;8.30;70.80;;;;;;5099262;28;19969;-81
2022/04/09 08:52:20;;;;;;;;;;;8.20;69.80;;;;;;5095958;28;20067;-79
2022/04/09 08:54:45;;;;;;;;;;;8.20;70.90;;;;;;5099554;28;19995;-81
2022/04/09 08:57:11;;;;;;;;;;;8.10;72.10;;;;;;5100559;28;19912;-82
2022/04/09 08:59:36;;;;;;;;;;;8.20;71.00;;;;;;5095454;28;19912;-81
2022/04/09 09:02:02;;;;;;;;;;;8.30;70.00;;;;;;5099000;28;19999;-81
2022/04/09 09:04:28;;;;;;;;;;;8.50;70.60;;;;;;5098217;28;19989;-81
2022/04/09 09:06:53;;;;;;;;;;;8.50;68.60;;;;;;5099181;28;19923;-80
2022/04/09 09:09:27;;;;;;;;;;;8.50;68.50;;;;;;5087329;28;19920;-81
2022/04/09 09:11:52;;;;;;;;;;;8.50;68.80;;;;;;5097284;28;19938;-81
2022/04/09 09:14:29;;;;;;;;;;;8.60;68.90;;;;;;5096437;28;20409;-81
2022/04/09 09:16:58;;;;;;;;;;;8.80;67.30;;;;;;5089270;28;19959;-81
2022/04/09 09:19:40;;;;;;;;;;;9.00;66.90;;;;;;5102799;28;19975;-81
2022/04/09 09:22:06;;;;;;;;;;;9.00;67.00;;;;;;5102615;28;19923;-81
2022/04/09 09:24:32;;;;;;;;;;;9.10;65.40;;;;;;5101305;28;19934;-81
2022/04/09 09:26:58;;;;;;;;;;;9.10;64.30;;;;;;5098689;28;20014;-81
2022/04/09 09:29:27;;;;;;;;;;;9.10;62.70;;;;;;5097524;28;20522;-81
2022/04/09 09:31:53;;;;;;;;;;;9.10;63.60;;;;;;5097080;28;19924;-81
2022/04/09 09:34:19;;;;;;;;;;;9.20;62.30;;;;;;5097590;28;19913;-80
2022/04/09 09:36:45;;;;;;;;;;;9.20;62.60;;;;;;5096664;28;19912;-81
2022/04/09 09:39:11;;;;;;;;;;;9.20;62.40;;;;;;5102150;28;19912;-80
2022/04/09 09:42:06;;;;;;;;;;;9.30;61.00;;;;;;5098020;28;20022;-81
2022/04/09 09:44:41;;;;;;;;;;;9.50;61.00;;;;;;5074471;28;20531;-81
2022/04/09 09:47:07;;;;;;;;;;;9.60;60.00;;;;;;5092049;28;20030;-81
2022/04/09 09:49:37;;;;;;;;;;;9.40;60.70;;;;;;5090386;28;20358;-81
2022/04/09 09:52:07;;;;;;;;;;;9.10;59.90;;;;;;5090539;28;19946;-80
2022/04/09 09:54:32;;;;;;;;;;;8.80;61.70;;;;;;5094515;28;21498;-79
2022/04/09 09:57:00;;;;;;;;;;;8.10;65.80;;;;;;5099218;28;19916;-82
2022/04/09 09:59:27;;;;;;;;;;;7.50;69.30;;;;;;5103225;28;19921;-83
2022/04/09 10:01:54;;;;;;;;;;;7.00;72.10;;;;;;5094957;28;19921;-83
2022/04/09 10:04:21;;;;;;;;;;;6.90;73.30;;;;;;5091256;28;20242;-81
2022/04/09 10:06:46;;;;;;;;;;;6.80;73.30;;;;;;5087683;28;19913;-81
2022/04/09 10:09:15;;;;;;;;;;;7.00;74.80;;;;;;5090816;28;19920;-81
2022/04/09 10:11:49;;;;;;;;;;;6.80;73.90;;;;;;5087179;28;19920;-81
2022/04/09 10:14:17;;;;;;;;;;;6.90;74.60;;;;;;5089508;28;19916;-80
2022/04/09 10:16:43;;;;;;;;;;;6.80;73.80;;;;;;5086224;28;19978;-81
2022/04/09 10:19:10;;;;;;;;;;;7.00;74.90;;;;;;5085585;28;19934;-81
2022/04/09 10:21:38;;;;;;;;;;;7.10;75.70;;;;;;5087515;28;19961;-80
2022/04/09 10:24:05;;;;;;;;;;;7.30;73.30;;;;;;5093677;28;19912;-81
2022/04/09 10:26:31;;;;;;;;;;;7.50;72.60;;;;;;5090628;28;19955;-82
2022/04/09 10:29:03;;;;;;;;;;;7.60;70.40;;;;;;5084356;28;19992;-82
2022/04/09 10:31:28;;;;;;;;;;;7.70;70.10;;;;;;5090717;28;19997;-83
2022/04/09 10:33:55;;;;;;;;;;;7.90;69.80;;;;;;5092908;28;19916;-82
2022/04/09 10:36:39;;;;;;;;;;;8.20;67.90;;;;;;5095308;28;19951;-82
2022/04/09 10:39:23;;;;;;;;;;;8.40;67.30;;;;;;5088019;28;19931;-82
2022/04/09 10:41:49;;;;;;;;;;;8.50;66.60;;;;;;5086794;28;20394;-81
2022/04/09 10:44:34;;;;;;;;;;;8.60;65.30;;;;;;5095838;28;19947;-82
2022/04/09 10:47:01;;;;;;;;;;;8.80;64.30;;;;;;5084844;28;19912;-82
2022/04/09 10:49:28;;;;;;;;;;;9.00;64.70;;;;;;5083988;28;20037;-82
2022/04/09 10:52:08;;;;;;;;;;;9.30;61.50;;;;;;5087250;28;20526;-81
2022/04/09 10:54:34;;;;;;;;;;;9.60;59.20;;;;;;5092874;28;20342;-82
2022/04/09 10:57:06;;;;;;;;;;;9.70;58.40;;;;;;5091165;28;19920;-82
2022/04/09 10:59:33;;;;;;;;;;;9.80;58.60;;;;;;5083091;28;19912;-83
2022/04/09 11:01:59;;;;;;;;;;;9.40;64.20;;;;;;5086527;28;19947;-82
2022/04/09 11:04:36;;;;;;;;;;;8.30;66.80;;;;;;5085480;28;19935;-82
2022/04/09 11:07:02;;;;;;;;;;;7.60;69.40;;;;;;5088766;28;19920;-82
2022/04/09 11:09:49;;;;;;;;;;;7.30;70.90;;;;;;5081772;28;19916;-83
2022/04/09 11:12:20;;;;;;;;;;;7.00;72.30;;;;;;5084993;28;19920;-83
2022/04/09 11:14:47;;;;;;;;;;;6.90;72.70;;;;;;5105437;28;19912;-83
2022/04/09 11:17:19;;;;;;;;;;;7.00;72.80;;;;;;5091481;28;19916;-82
2022/04/09 11:19:45;;;;;;;;;;;7.00;73.30;;;;;;5096914;28;19942;-83
2022/04/09 11:22:10;;;;;;;;;;;7.30;73.90;;;;;;5089342;28;19912;-83
2022/04/09 11:24:37;;;;;;;;;;;7.40;74.20;;;;;;5094438;28;19957;-82
2022/04/09 11:27:02;;;;;;;;;;;7.60;72.90;;;;;;5094166;28;19923;-82
2022/04/09 11:29:32;;;;;;;;;;;7.60;72.10;;;;;;5094677;28;19912;-82
2022/04/09 11:31:58;;;;;;;;;;;7.60;73.40;;;;;;5085429;28;20032;-83
2022/04/09 11:34:25;;;;;;;;;;;7.30;75.50;;;;;;5089847;28;19940;-83
2022/04/09 11:36:52;;;;;;;;;;;6.80;75.60;;;;;;5073067;28;19913;-82
2022/04/09 11:39:18;;;;;;;;;;;6.70;76.80;;;;;;5102889;28;19919;-83
2022/04/09 11:41:47;;;;;;;;;;;6.40;78.50;;;;;;5098776;28;20370;-82
2022/04/09 11:44:28;;;;;;;;;;;6.30;80.60;;;;;;5097146;28;20447;-84
2022/04/09 11:46:54;;;;;;;;;;;6.10;80.10;;;;;;5116477;28;20613;-85
2022/04/09 11:49:19;;;;;;;;;;;5.60;81.10;;;;;;5100890;28;19924;-85
2022/04/09 11:51:54;;;;;;;;;;;5.50;82.20;;;;;;5099532;28;19916;-86
2022/04/09 11:54:20;;;;;;;;;;;5.30;82.70;;;;;;5109889;28;20002;-87
2022/04/09 11:56:46;;;;;;;;;;;5.40;84.10;;;;;;5096967;28;19951;-86
2022/04/09 11:59:12;;;;;;;;;;;5.60;83.70;;;;;;5094569;28;19912;-86
2022/04/09 12:01:38;;;;;;;;;;;5.80;83.80;;;;;;5097861;28;19916;-86
2022/04/09 12:04:03;;;;;;;;;;;5.90;83.60;;;;;;5080345;28;19961;-85
2022/04/09 12:06:29;;;;;;;;;;;6.10;82.80;;;;;;5091081;28;19957;-84
2022/04/09 12:08:55;;;;;;;;;;;6.20;78.50;;;;;;5097894;28;19982;-85
2022/04/09 12:11:20;;;;;;;;;;;6.20;79.00;;;;;;5091216;28;19947;-85
2022/04/09 12:13:46;;;;;;;;;;;6.20;79.00;;;;;;5095150;28;19991;-84
2022/04/09 12:16:12;;;;;;;;;;;6.50;80.90;;;;;;5094446;28;19908;-84
2022/04/09 12:18:38;;;;;;;;;;;6.80;81.00;;;;;;5090316;28;19976;-83
2022/04/09 12:21:19;;;;;;;;;;;7.20;78.50;;;;;;5090055;28;20332;-85
2022/04/09 12:23:46;;;;;;;;;;;7.30;78.80;;;;;;5088951;28;19912;-84
2022/04/09 12:26:21;;;;;;;;;;;7.60;79.10;;;;;;5082054;28;19919;-83
2022/04/09 12:28:47;;;;;;;;;;;7.60;76.30;;;;;;5084368;28;19919;-81
2022/04/09 12:31:24;;;;;;;;;;;7.70;76.70;;;;;;5091382;28;19928;-81
2022/04/09 12:33:57;;;;;;;;;;;7.90;77.20;;;;;;5090190;28;20014;-82
2022/04/09 12:36:22;;;;;;;;;;;8.00;76.40;;;;;;5087189;28;19915;-80
2022/04/09 12:38:48;;;;;;;;;;;8.30;75.20;;;;;;5087365;28;19921;-81
2022/04/09 12:41:13;;;;;;;;;;;8.30;75.50;;;;;;5091653;28;20011;-81
2022/04/09 12:43:41;;;;;;;;;;;8.30;75.70;;;;;;5098606;28;19924;-79
2022/04/09 12:46:11;;;;;;;;;;;8.50;73.90;;;;;;5092164;28;19912;-81
2022/04/09 12:48:38;;;;;;;;;;;8.70;73.50;;;;;;5091185;28;19916;-80
2022/04/09 12:51:04;;;;;;;;;;;8.90;67.80;;;;;;5094761;28;19924;-82
2022/04/09 12:53:29;;;;;;;;;;;9.20;70.30;;;;;;5090438;28;19920;-82
2022/04/09 12:55:55;;;;;;;;;;;9.60;68.40;;;;;;5089950;28;20015;-82
2022/04/09 12:58:20;;;;;;;;;;;9.80;62.80;;;;;;5090497;28;19912;-85
2022/04/09 13:00:46;;;;;;;;;;;10.00;61.00;;;;;;5090971;28;19913;-82
2022/04/09 13:03:13;;;;;;;;;;;10.00;61.70;;;;;;5085835;28;20724;-83
2022/04/09 13:05:41;;;;;;;;;;;10.00;61.40;;;;;;5101961;28;19916;-81
2022/04/09 13:08:06;;;;;;;;;;;9.90;59.20;;;;;;5096856;28;21584;-82
2022/04/09 13:10:34;;;;;;;;;;;9.70;58.10;;;;;;5091343;28;19973;-82
2022/04/09 13:13:00;;;;;;;;;;;9.60;57.40;;;;;;5085098;28;19931;-83
2022/04/09 13:15:25;;;;;;;;;;;9.60;57.30;;;;;;5091644;28;19920;-82
2022/04/09 13:17:51;;;;;;;;;;;9.50;57.40;;;;;;5085300;28;20356;-84
2022/04/09 13:20:17;;;;;;;;;;;9.50;57.20;;;;;;5082157;28;19995;-82
2022/04/09 13:22:43;;;;;;;;;;;9.70;56.70;;;;;;5081985;28;20023;-82
2022/04/09 13:25:08;;;;;;;;;;;9.80;56.90;;;;;;5084880;28;19948;-82
2022/04/09 13:27:34;;;;;;;;;;;9.70;58.80;;;;;;5080050;28;20018;-81
2022/04/09 13:30:01;;;;;;;;;;;9.60;58.40;;;;;;5091899;28;19931;-83
2022/04/09 13:32:26;;;;;;;;;;;9.50;58.80;;;;;;5092861;28;20011;-82
2022/04/09 13:34:52;;;;;;;;;;;9.60;59.20;;;;;;5090850;28;20138;-82
2022/04/09 13:37:20;;;;;;;;;;;9.60;57.70;;;;;;5084477;28;19923;-82
2022/04/09 13:39:45;;;;;;;;;;;9.50;57.30;;;;;;5086176;28;20223;-82
2022/04/09 13:42:11;;;;;;;;;;;9.30;57.40;;;;;;5084156;28;19935;-82
2022/04/09 13:44:38;;;;;;;;;;;9.30;56.60;;;;;;5086604;28;19913;-82
2022/04/09 13:47:07;;;;;;;;;;;9.40;57.90;;;;;;5088229;28;20041;-81
2022/04/09 13:49:33;;;;;;;;;;;9.40;57.00;;;;;;5099528;28;19920;-85
2022/04/09 13:51:59;;;;;;;;;;;9.60;55.40;;;;;;5083851;28;20520;-81
2022/04/09 13:54:25;;;;;;;;;;;9.60;56.90;;;;;;5082597;28;19956;-81
2022/04/09 13:56:50;;;;;;;;;;;9.80;54.30;;;;;;5083922;28;19916;-80
2022/04/09 13:59:18;;;;;;;;;;;9.70;51.50;;;;;;5089367;28;19923;-80
2022/04/09 14:01:43;;;;;;;;;;;9.60;51.70;;;;;;5088110;28;19920;-79
2022/04/09 14:04:09;;;;;;;;;;;9.60;53.00;;;;;;5096789;28;20261;-79
2022/04/09 14:06:34;;;;;;;;;;;9.60;54.40;;;;;;5093996;28;20483;-80
2022/04/09 14:09:00;;;;;;;;;;;9.70;53.70;;;;;;5082463;28;19916;-80
2022/04/09 14:11:25;;;;;;;;;;;9.70;53.30;;;;;;5086117;28;19920;-81
2022/04/09 14:13:52;;;;;;;;;;;9.80;54.00;;;;;;5090633;28;20579;-82
2022/04/09 14:16:18;;;;;;;;;;;9.80;54.20;;;;;;5085839;28;19917;-82
2022/04/09 14:18:43;;;;;;;;;;;9.80;55.00;;;;;;5090625;28;19912;-82
2022/04/09 14:21:09;;;;;;;;;;;9.70;56.10;;;;;;5085767;28;19913;-83
2022/04/09 14:23:34;;;;;;;;;;;9.70;56.00;;;;;;5088338;28;19920;-85
2022/04/09 14:25:59;;;;;;;;;;;9.50;59.80;;;;;;5099296;28;19962;-83
2022/04/09 14:28:26;;;;;;;;;;;8.90;65.30;;;;;;5095022;28;20303;-83
2022/04/09 14:30:55;;;;;;;;;;;8.40;71.00;;;;;;5091273;28;19916;-82